sensor_id;sensor_type;location;lat;lon;timestamp;P1;durP1;ratioP1;P2;durP2;ratioP2
21905;SDS011;11117;48.644;9.006;2024-02-14T00:02:11;13.80;;;6.47;;
21905;SDS011;11117;48.644;9.006;2024-02-14T00:04:36;11.40;;;6.57;;
21905;SDS011;11117;48.644;9.006;2024-02-14T00:07:02;12.13;;;6.13;;
21905;SDS011;11117;48.644;9.006;2024-02-14T00:09:27;14.80;;;7.20;;
21905;SDS011;11117;48.644;9.006;2024-02-14T00:11:53;15.30;;;6.97;;
21905;SDS011;11117;48.644;9.006;2024-02-14T00:14:19;15.17;;;6.27;;
21905;SDS011;11117;48.644;9.006;2024-02-14T00:16:44;10.57;;;5.97;;
21905;SDS011;11117;48.644;9.006;2024-02-14T00:19:10;11.40;;;6.00;;
21905;SDS011;11117;48.644;9.006;2024-02-14T00:21:35;14.07;;;6.00;;
21905;SDS011;11117;48.644;9.006;2024-02-14T00:24:01;10.83;;;5.83;;
21905;SDS011;11117;48.644;9.006;2024-02-14T00:26:27;15.47;;;6.17;;
21905;SDS011;11117;48.644;9.006;2024-02-14T00:28:52;12.23;;;6.13;;
21905;SDS011;11117;48.644;9.006;2024-02-14T00:31:18;14.70;;;5.70;;
21905;SDS011;11117;48.644;9.006;2024-02-14T00:33:43;14.43;;;6.80;;
21905;SDS011;11117;48.644;9.006;2024-02-14T00:36:09;13.60;;;6.40;;
21905;SDS011;11117;48.644;9.006;2024-02-14T00:38:34;14.17;;;6.47;;
21905;SDS011;11117;48.644;9.006;2024-02-14T00:41:02;12.27;;;6.30;;
21905;SDS011;11117;48.644;9.006;2024-02-14T00:43:27;12.03;;;6.03;;
21905;SDS011;11117;48.644;9.006;2024-02-14T00:45:53;10.13;;;5.97;;
21905;SDS011;11117;48.644;9.006;2024-02-14T00:48:18;14.07;;;6.60;;
21905;SDS011;11117;48.644;9.006;2024-02-14T00:50:44;14.70;;;6.80;;
21905;SDS011;11117;48.644;9.006;2024-02-14T00:53:10;12.30;;;6.70;;
21905;SDS011;11117;48.644;9.006;2024-02-14T00:55:36;12.97;;;6.13;;
21905;SDS011;11117;48.644;9.006;2024-02-14T00:58:02;14.47;;;6.70;;
21905;SDS011;11117;48.644;9.006;2024-02-14T01:00:27;14.07;;;6.77;;
21905;SDS011;11117;48.644;9.006;2024-02-14T01:02:53;11.33;;;6.23;;
21905;SDS011;11117;48.644;9.006;2024-02-14T01:05:18;14.83;;;6.77;;
21905;SDS011;11117;48.644;9.006;2024-02-14T01:07:44;14.70;;;6.93;;
21905;SDS011;11117;48.644;9.006;2024-02-14T01:10:10;17.97;;;7.53;;
21905;SDS011;11117;48.644;9.006;2024-02-14T01:12:35;14.07;;;6.57;;
21905;SDS011;11117;48.644;9.006;2024-02-14T01:15:01;13.20;;;6.97;;
21905;SDS011;11117;48.644;9.006;2024-02-14T01:17:26;12.07;;;6.47;;
21905;SDS011;11117;48.644;9.006;2024-02-14T01:19:52;12.00;;;6.40;;
21905;SDS011;11117;48.644;9.006;2024-02-14T01:22:17;10.53;;;6.20;;
21905;SDS011;11117;48.644;9.006;2024-02-14T01:24:43;15.33;;;6.57;;
21905;SDS011;11117;48.644;9.006;2024-02-14T01:27:09;13.70;;;6.60;;
21905;SDS011;11117;48.644;9.006;2024-02-14T01:29:34;13.13;;;6.63;;
21905;SDS011;11117;48.644;9.006;2024-02-14T01:32:00;10.77;;;6.80;;
21905;SDS011;11117;48.644;9.006;2024-02-14T01:34:26;13.80;;;6.50;;
21905;SDS011;11117;48.644;9.006;2024-02-14T01:36:51;16.83;;;6.73;;
21905;SDS011;11117;48.644;9.006;2024-02-14T01:39:17;18.03;;;6.83;;
21905;SDS011;11117;48.644;9.006;2024-02-14T01:41:45;13.73;;;6.93;;
21905;SDS011;11117;48.644;9.006;2024-02-14T01:44:11;17.63;;;6.90;;
21905;SDS011;11117;48.644;9.006;2024-02-14T01:46:37;11.07;;;6.03;;
21905;SDS011;11117;48.644;9.006;2024-02-14T01:49:03;16.23;;;6.90;;
21905;SDS011;11117;48.644;9.006;2024-02-14T01:51:29;13.87;;;6.67;;
21905;SDS011;11117;48.644;9.006;2024-02-14T01:53:56;13.30;;;6.87;;
21905;SDS011;11117;48.644;9.006;2024-02-14T01:56:22;16.50;;;6.47;;
21905;SDS011;11117;48.644;9.006;2024-02-14T01:58:48;12.50;;;6.63;;
21905;SDS011;11117;48.644;9.006;2024-02-14T02:01:14;12.83;;;7.07;;
21905;SDS011;11117;48.644;9.006;2024-02-14T02:03:40;11.87;;;6.27;;
21905;SDS011;11117;48.644;9.006;2024-02-14T02:06:06;13.43;;;6.93;;
21905;SDS011;11117;48.644;9.006;2024-02-14T02:08:31;15.07;;;7.00;;
21905;SDS011;11117;48.644;9.006;2024-02-14T02:11:03;10.70;;;6.87;;
21905;SDS011;11117;48.644;9.006;2024-02-14T02:13:28;15.27;;;6.63;;
21905;SDS011;11117;48.644;9.006;2024-02-14T02:15:54;12.77;;;5.97;;
21905;SDS011;11117;48.644;9.006;2024-02-14T02:18:20;17.23;;;5.97;;
21905;SDS011;11117;48.644;9.006;2024-02-14T02:20:45;9.63;;;5.20;;
21905;SDS011;11117;48.644;9.006;2024-02-14T02:23:11;9.23;;;5.10;;
21905;SDS011;11117;48.644;9.006;2024-02-14T02:25:37;14.43;;;5.47;;
21905;SDS011;11117;48.644;9.006;2024-02-14T02:28:02;10.10;;;5.90;;
21905;SDS011;11117;48.644;9.006;2024-02-14T02:30:28;12.37;;;6.47;;
21905;SDS011;11117;48.644;9.006;2024-02-14T02:32:54;12.53;;;6.10;;
21905;SDS011;11117;48.644;9.006;2024-02-14T02:35:19;11.60;;;6.10;;
21905;SDS011;11117;48.644;9.006;2024-02-14T02:37:45;11.73;;;5.40;;
21905;SDS011;11117;48.644;9.006;2024-02-14T02:40:11;14.23;;;6.03;;
21905;SDS011;11117;48.644;9.006;2024-02-14T02:42:37;11.70;;;5.60;;
21905;SDS011;11117;48.644;9.006;2024-02-14T02:45:03;11.13;;;5.40;;
21905;SDS011;11117;48.644;9.006;2024-02-14T02:47:29;11.83;;;6.20;;
21905;SDS011;11117;48.644;9.006;2024-02-14T02:49:54;9.23;;;5.43;;
21905;SDS011;11117;48.644;9.006;2024-02-14T02:52:20;11.33;;;5.10;;
21905;SDS011;11117;48.644;9.006;2024-02-14T02:54:45;11.03;;;5.40;;
21905;SDS011;11117;48.644;9.006;2024-02-14T02:57:11;11.60;;;5.47;;
21905;SDS011;11117;48.644;9.006;2024-02-14T02:59:36;11.23;;;4.93;;
21905;SDS011;11117;48.644;9.006;2024-02-14T03:02:02;9.70;;;5.00;;
21905;SDS011;11117;48.644;9.006;2024-02-14T03:04:28;9.10;;;4.60;;
21905;SDS011;11117;48.644;9.006;2024-02-14T03:06:54;9.30;;;4.80;;
21905;SDS011;11117;48.644;9.006;2024-02-14T03:09:19;10.40;;;4.73;;
21905;SDS011;11117;48.644;9.006;2024-02-14T03:11:48;8.30;;;4.03;;
21905;SDS011;11117;48.644;9.006;2024-02-14T03:14:13;6.80;;;3.13;;
21905;SDS011;11117;48.644;9.006;2024-02-14T03:16:39;5.67;;;2.97;;
21905;SDS011;11117;48.644;9.006;2024-02-14T03:19:05;8.60;;;3.33;;
21905;SDS011;11117;48.644;9.006;2024-02-14T03:21:31;6.63;;;3.17;;
21905;SDS011;11117;48.644;9.006;2024-02-14T03:23:57;9.03;;;4.23;;
21905;SDS011;11117;48.644;9.006;2024-02-14T03:26:22;11.63;;;3.73;;
21905;SDS011;11117;48.644;9.006;2024-02-14T03:28:48;7.83;;;3.70;;
21905;SDS011;11117;48.644;9.006;2024-02-14T03:31:14;11.07;;;3.83;;
21905;SDS011;11117;48.644;9.006;2024-02-14T03:33:39;8.00;;;4.33;;
21905;SDS011;11117;48.644;9.006;2024-02-14T03:36:05;11.30;;;4.57;;
21905;SDS011;11117;48.644;9.006;2024-02-14T03:38:30;10.97;;;4.63;;
21905;SDS011;11117;48.644;9.006;2024-02-14T03:40:59;9.87;;;4.37;;
21905;SDS011;11117;48.644;9.006;2024-02-14T03:43:24;9.90;;;4.13;;
21905;SDS011;11117;48.644;9.006;2024-02-14T03:45:50;10.10;;;4.67;;
21905;SDS011;11117;48.644;9.006;2024-02-14T03:48:16;10.47;;;4.67;;
21905;SDS011;11117;48.644;9.006;2024-02-14T03:50:41;8.47;;;4.30;;
21905;SDS011;11117;48.644;9.006;2024-02-14T03:53:07;12.30;;;4.27;;
21905;SDS011;11117;48.644;9.006;2024-02-14T03:55:33;8.53;;;4.40;;
21905;SDS011;11117;48.644;9.006;2024-02-14T03:57:58;10.37;;;4.47;;
21905;SDS011;11117;48.644;9.006;2024-02-14T04:00:24;9.37;;;3.80;;
21905;SDS011;11117;48.644;9.006;2024-02-14T04:02:49;8.90;;;4.40;;
21905;SDS011;11117;48.644;9.006;2024-02-14T04:05:15;10.27;;;4.50;;
21905;SDS011;11117;48.644;9.006;2024-02-14T04:07:40;7.00;;;3.77;;
21905;SDS011;11117;48.644;9.006;2024-02-14T04:10:06;6.37;;;4.00;;
21905;SDS011;11117;48.644;9.006;2024-02-14T04:12:32;15.10;;;4.30;;
21905;SDS011;11117;48.644;9.006;2024-02-14T04:14:58;5.83;;;3.70;;
21905;SDS011;11117;48.644;9.006;2024-02-14T04:17:23;9.23;;;4.00;;
21905;SDS011;11117;48.644;9.006;2024-02-14T04:19:49;6.67;;;3.87;;
21905;SDS011;11117;48.644;9.006;2024-02-14T04:22:14;10.23;;;4.40;;
21905;SDS011;11117;48.644;9.006;2024-02-14T04:24:40;8.07;;;3.60;;
21905;SDS011;11117;48.644;9.006;2024-02-14T04:27:05;6.00;;;3.37;;
21905;SDS011;11117;48.644;9.006;2024-02-14T04:29:31;6.87;;;3.53;;
21905;SDS011;11117;48.644;9.006;2024-02-14T04:31:57;8.20;;;3.57;;
21905;SDS011;11117;48.644;9.006;2024-02-14T04:34:23;6.00;;;3.37;;
21905;SDS011;11117;48.644;9.006;2024-02-14T04:36:48;9.33;;;2.97;;
21905;SDS011;11117;48.644;9.006;2024-02-14T04:39:14;9.23;;;3.50;;
21905;SDS011;11117;48.644;9.006;2024-02-14T04:41:39;7.80;;;3.37;;
21905;SDS011;11117;48.644;9.006;2024-02-14T04:44:05;8.47;;;3.63;;
21905;SDS011;11117;48.644;9.006;2024-02-14T04:46:30;5.67;;;2.90;;
21905;SDS011;11117;48.644;9.006;2024-02-14T04:48:56;6.90;;;3.10;;
21905;SDS011;11117;48.644;9.006;2024-02-14T04:51:21;11.50;;;3.40;;
21905;SDS011;11117;48.644;9.006;2024-02-14T04:53:47;6.80;;;3.30;;
21905;SDS011;11117;48.644;9.006;2024-02-14T04:56:13;10.30;;;3.77;;
21905;SDS011;11117;48.644;9.006;2024-02-14T04:58:38;8.70;;;3.20;;
21905;SDS011;11117;48.644;9.006;2024-02-14T05:01:04;8.27;;;2.90;;
21905;SDS011;11117;48.644;9.006;2024-02-14T05:03:29;8.70;;;3.20;;
21905;SDS011;11117;48.644;9.006;2024-02-14T05:06:01;9.57;;;3.10;;
21905;SDS011;11117;48.644;9.006;2024-02-14T05:08:26;5.43;;;2.77;;
21905;SDS011;11117;48.644;9.006;2024-02-14T05:10:52;6.80;;;3.00;;
21905;SDS011;11117;48.644;9.006;2024-02-14T05:13:17;6.97;;;2.77;;
21905;SDS011;11117;48.644;9.006;2024-02-14T05:15:43;7.07;;;2.60;;
21905;SDS011;11117;48.644;9.006;2024-02-14T05:18:08;4.27;;;2.50;;
21905;SDS011;11117;48.644;9.006;2024-02-14T05:20:34;8.50;;;2.33;;
21905;SDS011;11117;48.644;9.006;2024-02-14T05:23:00;6.03;;;2.47;;
21905;SDS011;11117;48.644;9.006;2024-02-14T05:25:25;5.20;;;2.40;;
21905;SDS011;11117;48.644;9.006;2024-02-14T05:27:51;5.73;;;2.00;;
21905;SDS011;11117;48.644;9.006;2024-02-14T05:30:16;4.93;;;2.53;;
21905;SDS011;11117;48.644;9.006;2024-02-14T05:32:42;5.80;;;2.20;;
21905;SDS011;11117;48.644;9.006;2024-02-14T05:35:07;4.77;;;2.30;;
21905;SDS011;11117;48.644;9.006;2024-02-14T05:37:33;6.43;;;2.73;;
21905;SDS011;11117;48.644;9.006;2024-02-14T05:39:59;5.13;;;1.97;;
21905;SDS011;11117;48.644;9.006;2024-02-14T05:42:24;7.27;;;2.13;;
21905;SDS011;11117;48.644;9.006;2024-02-14T05:44:50;7.03;;;2.80;;
21905;SDS011;11117;48.644;9.006;2024-02-14T05:47:15;8.97;;;2.70;;
21905;SDS011;11117;48.644;9.006;2024-02-14T05:49:41;5.80;;;2.70;;
21905;SDS011;11117;48.644;9.006;2024-02-14T05:52:07;7.47;;;2.70;;
21905;SDS011;11117;48.644;9.006;2024-02-14T05:54:32;8.17;;;2.50;;
21905;SDS011;11117;48.644;9.006;2024-02-14T05:56:58;4.87;;;2.40;;
21905;SDS011;11117;48.644;9.006;2024-02-14T05:59:24;7.13;;;2.80;;
21905;SDS011;11117;48.644;9.006;2024-02-14T06:01:50;6.67;;;1.90;;
21905;SDS011;11117;48.644;9.006;2024-02-14T06:04:15;6.00;;;2.30;;
21905;SDS011;11117;48.644;9.006;2024-02-14T06:06:41;4.83;;;2.10;;
21905;SDS011;11117;48.644;9.006;2024-02-14T06:09:07;4.80;;;2.47;;
21905;SDS011;11117;48.644;9.006;2024-02-14T06:11:32;8.20;;;2.67;;
21905;SDS011;11117;48.644;9.006;2024-02-14T06:13:58;7.47;;;2.37;;
21905;SDS011;11117;48.644;9.006;2024-02-14T06:16:23;7.13;;;2.37;;
21905;SDS011;11117;48.644;9.006;2024-02-14T06:18:49;6.93;;;2.20;;
21905;SDS011;11117;48.644;9.006;2024-02-14T06:21:14;6.67;;;2.10;;
21905;SDS011;11117;48.644;9.006;2024-02-14T06:23:40;4.73;;;2.20;;
21905;SDS011;11117;48.644;9.006;2024-02-14T06:26:06;6.80;;;2.57;;
21905;SDS011;11117;48.644;9.006;2024-02-14T06:28:32;5.33;;;2.47;;
21905;SDS011;11117;48.644;9.006;2024-02-14T06:31:01;5.33;;;2.50;;
21905;SDS011;11117;48.644;9.006;2024-02-14T06:33:26;6.37;;;2.57;;
21905;SDS011;11117;48.644;9.006;2024-02-14T06:35:52;4.07;;;2.30;;
21905;SDS011;11117;48.644;9.006;2024-02-14T06:38:17;4.67;;;2.40;;
21905;SDS011;11117;48.644;9.006;2024-02-14T06:40:43;5.53;;;2.57;;
21905;SDS011;11117;48.644;9.006;2024-02-14T06:43:09;5.17;;;2.27;;
21905;SDS011;11117;48.644;9.006;2024-02-14T06:45:34;4.70;;;2.50;;
21905;SDS011;11117;48.644;9.006;2024-02-14T06:48:00;7.10;;;2.60;;
21905;SDS011;11117;48.644;9.006;2024-02-14T06:50:25;5.73;;;2.40;;
21905;SDS011;11117;48.644;9.006;2024-02-14T06:52:51;4.77;;;2.20;;
21905;SDS011;11117;48.644;9.006;2024-02-14T06:55:16;9.30;;;2.40;;
21905;SDS011;11117;48.644;9.006;2024-02-14T06:57:42;4.30;;;2.50;;
21905;SDS011;11117;48.644;9.006;2024-02-14T07:00:08;6.13;;;2.63;;
21905;SDS011;11117;48.644;9.006;2024-02-14T07:02:34;6.53;;;2.40;;
21905;SDS011;11117;48.644;9.006;2024-02-14T07:04:59;3.60;;;2.20;;
21905;SDS011;11117;48.644;9.006;2024-02-14T07:07:25;7.53;;;2.40;;
21905;SDS011;11117;48.644;9.006;2024-02-14T07:09:50;6.30;;;2.40;;
21905;SDS011;11117;48.644;9.006;2024-02-14T07:12:16;9.37;;;2.47;;
21905;SDS011;11117;48.644;9.006;2024-02-14T07:14:42;5.27;;;2.50;;
21905;SDS011;11117;48.644;9.006;2024-02-14T07:17:07;5.40;;;2.50;;
21905;SDS011;11117;48.644;9.006;2024-02-14T07:19:33;7.23;;;2.60;;
21905;SDS011;11117;48.644;9.006;2024-02-14T07:21:58;10.77;;;2.47;;
21905;SDS011;11117;48.644;9.006;2024-02-14T07:24:24;5.53;;;2.10;;
21905;SDS011;11117;48.644;9.006;2024-02-14T07:26:49;4.80;;;2.17;;
21905;SDS011;11117;48.644;9.006;2024-02-14T07:29:15;4.97;;;2.17;;
21905;SDS011;11117;48.644;9.006;2024-02-14T07:31:40;8.90;;;2.40;;
21905;SDS011;11117;48.644;9.006;2024-02-14T07:34:06;4.53;;;2.57;;
21905;SDS011;11117;48.644;9.006;2024-02-14T07:36:32;5.40;;;2.20;;
21905;SDS011;11117;48.644;9.006;2024-02-14T07:38:57;6.00;;;2.33;;
21905;SDS011;11117;48.644;9.006;2024-02-14T07:41:23;7.50;;;2.60;;
21905;SDS011;11117;48.644;9.006;2024-02-14T07:43:48;6.73;;;2.17;;
21905;SDS011;11117;48.644;9.006;2024-02-14T07:46:20;6.40;;;2.40;;
21905;SDS011;11117;48.644;9.006;2024-02-14T07:48:46;6.60;;;2.30;;
21905;SDS011;11117;48.644;9.006;2024-02-14T07:51:12;7.13;;;2.27;;
21905;SDS011;11117;48.644;9.006;2024-02-14T07:53:37;3.00;;;2.00;;
21905;SDS011;11117;48.644;9.006;2024-02-14T07:56:03;7.80;;;2.67;;
21905;SDS011;11117;48.644;9.006;2024-02-14T07:58:29;5.27;;;1.87;;
21905;SDS011;11117;48.644;9.006;2024-02-14T08:00:56;6.63;;;2.37;;
21905;SDS011;11117;48.644;9.006;2024-02-14T08:03:21;5.17;;;2.07;;
21905;SDS011;11117;48.644;9.006;2024-02-14T08:05:47;2.57;;;1.80;;
21905;SDS011;11117;48.644;9.006;2024-02-14T08:08:13;5.17;;;1.90;;
21905;SDS011;11117;48.644;9.006;2024-02-14T08:10:38;3.47;;;1.83;;
21905;SDS011;11117;48.644;9.006;2024-02-14T08:13:04;3.97;;;1.87;;
21905;SDS011;11117;48.644;9.006;2024-02-14T08:15:29;5.67;;;1.70;;
21905;SDS011;11117;48.644;9.006;2024-02-14T08:17:55;4.20;;;2.00;;
21905;SDS011;11117;48.644;9.006;2024-02-14T08:20:21;4.83;;;2.10;;
21905;SDS011;11117;48.644;9.006;2024-02-14T08:22:46;5.83;;;1.90;;
21905;SDS011;11117;48.644;9.006;2024-02-14T08:25:13;5.17;;;1.83;;
21905;SDS011;11117;48.644;9.006;2024-02-14T08:27:38;4.83;;;1.97;;
21905;SDS011;11117;48.644;9.006;2024-02-14T08:30:04;6.60;;;2.40;;
21905;SDS011;11117;48.644;9.006;2024-02-14T08:32:30;3.40;;;1.87;;
21905;SDS011;11117;48.644;9.006;2024-02-14T08:34:56;3.90;;;1.80;;
21905;SDS011;11117;48.644;9.006;2024-02-14T08:37:22;9.17;;;2.07;;
21905;SDS011;11117;48.644;9.006;2024-02-14T08:39:47;7.27;;;1.70;;
21905;SDS011;11117;48.644;9.006;2024-02-14T08:42:13;4.20;;;1.80;;
21905;SDS011;11117;48.644;9.006;2024-02-14T08:44:38;4.47;;;1.83;;
21905;SDS011;11117;48.644;9.006;2024-02-14T08:47:04;7.17;;;1.60;;
21905;SDS011;11117;48.644;9.006;2024-02-14T08:49:29;3.13;;;1.63;;
21905;SDS011;11117;48.644;9.006;2024-02-14T08:51:55;3.97;;;1.50;;
21905;SDS011;11117;48.644;9.006;2024-02-14T08:54:20;3.30;;;1.50;;
21905;SDS011;11117;48.644;9.006;2024-02-14T08:56:46;3.30;;;1.60;;
21905;SDS011;11117;48.644;9.006;2024-02-14T08:59:12;3.47;;;1.60;;
21905;SDS011;11117;48.644;9.006;2024-02-14T09:01:37;3.17;;;1.50;;
21905;SDS011;11117;48.644;9.006;2024-02-14T09:04:03;4.37;;;1.57;;
21905;SDS011;11117;48.644;9.006;2024-02-14T09:06:28;3.03;;;1.60;;
21905;SDS011;11117;48.644;9.006;2024-02-14T09:08:54;5.90;;;1.97;;
21905;SDS011;11117;48.644;9.006;2024-02-14T09:11:20;5.53;;;2.03;;
21905;SDS011;11117;48.644;9.006;2024-02-14T09:13:46;4.33;;;1.73;;
21905;SDS011;11117;48.644;9.006;2024-02-14T09:16:11;6.53;;;2.00;;
21905;SDS011;11117;48.644;9.006;2024-02-14T09:18:37;3.83;;;1.77;;
21905;SDS011;11117;48.644;9.006;2024-02-14T09:21:02;4.37;;;1.83;;
21905;SDS011;11117;48.644;9.006;2024-02-14T09:23:28;4.30;;;1.67;;
21905;SDS011;11117;48.644;9.006;2024-02-14T09:25:53;3.00;;;1.50;;
21905;SDS011;11117;48.644;9.006;2024-02-14T09:28:19;3.43;;;1.70;;
21905;SDS011;11117;48.644;9.006;2024-02-14T09:30:45;2.60;;;1.50;;
21905;SDS011;11117;48.644;9.006;2024-02-14T09:33:10;2.50;;;1.70;;
21905;SDS011;11117;48.644;9.006;2024-02-14T09:35:37;5.00;;;1.90;;
21905;SDS011;11117;48.644;9.006;2024-02-14T09:38:03;4.57;;;1.70;;
21905;SDS011;11117;48.644;9.006;2024-02-14T09:40:29;3.40;;;1.50;;
21905;SDS011;11117;48.644;9.006;2024-02-14T09:42:55;3.47;;;1.60;;
21905;SDS011;11117;48.644;9.006;2024-02-14T09:45:22;3.53;;;1.60;;
21905;SDS011;11117;48.644;9.006;2024-02-14T09:47:50;4.53;;;1.87;;
21905;SDS011;11117;48.644;9.006;2024-02-14T09:50:17;4.17;;;1.43;;
21905;SDS011;11117;48.644;9.006;2024-02-14T09:52:43;5.07;;;1.40;;
21905;SDS011;11117;48.644;9.006;2024-02-14T09:55:09;7.23;;;1.67;;
21905;SDS011;11117;48.644;9.006;2024-02-14T09:57:37;3.43;;;1.47;;
21905;SDS011;11117;48.644;9.006;2024-02-14T10:00:07;3.37;;;1.50;;
21905;SDS011;11117;48.644;9.006;2024-02-14T10:02:35;4.00;;;1.47;;
21905;SDS011;11117;48.644;9.006;2024-02-14T10:05:00;2.67;;;1.30;;
21905;SDS011;11117;48.644;9.006;2024-02-14T10:07:26;5.50;;;1.60;;
21905;SDS011;11117;48.644;9.006;2024-02-14T10:09:51;4.13;;;1.70;;
21905;SDS011;11117;48.644;9.006;2024-02-14T10:12:17;2.67;;;1.33;;
21905;SDS011;11117;48.644;9.006;2024-02-14T10:14:43;5.23;;;1.40;;
21905;SDS011;11117;48.644;9.006;2024-02-14T10:17:08;4.10;;;1.60;;
21905;SDS011;11117;48.644;9.006;2024-02-14T10:19:41;2.47;;;1.37;;
21905;SDS011;11117;48.644;9.006;2024-02-14T10:22:07;2.37;;;1.50;;
21905;SDS011;11117;48.644;9.006;2024-02-14T10:24:32;4.60;;;1.50;;
21905;SDS011;11117;48.644;9.006;2024-02-14T10:27:01;4.13;;;1.40;;
21905;SDS011;11117;48.644;9.006;2024-02-14T10:29:30;2.30;;;1.40;;
21905;SDS011;11117;48.644;9.006;2024-02-14T10:31:55;3.53;;;1.63;;
21905;SDS011;11117;48.644;9.006;2024-02-14T10:34:24;3.07;;;1.63;;
21905;SDS011;11117;48.644;9.006;2024-02-14T10:36:50;1.77;;;1.30;;
21905;SDS011;11117;48.644;9.006;2024-02-14T10:39:17;2.93;;;1.30;;
21905;SDS011;11117;48.644;9.006;2024-02-14T10:41:45;5.83;;;1.23;;
21905;SDS011;11117;48.644;9.006;2024-02-14T10:44:11;3.30;;;1.57;;
21905;SDS011;11117;48.644;9.006;2024-02-14T10:46:36;5.53;;;1.50;;
21905;SDS011;11117;48.644;9.006;2024-02-14T10:49:03;4.57;;;1.37;;
21905;SDS011;11117;48.644;9.006;2024-02-14T10:51:31;4.47;;;1.50;;
21905;SDS011;11117;48.644;9.006;2024-02-14T10:53:57;6.07;;;1.20;;
21905;SDS011;11117;48.644;9.006;2024-02-14T10:56:23;1.47;;;1.33;;
21905;SDS011;11117;48.644;9.006;2024-02-14T10:58:50;2.47;;;1.30;;
21905;SDS011;11117;48.644;9.006;2024-02-14T11:01:21;4.30;;;1.13;;
21905;SDS011;11117;48.644;9.006;2024-02-14T11:03:48;4.40;;;1.13;;
21905;SDS011;11117;48.644;9.006;2024-02-14T11:06:15;1.47;;;1.10;;
21905;SDS011;11117;48.644;9.006;2024-02-14T11:08:41;4.20;;;1.90;;
21905;SDS011;11117;48.644;9.006;2024-02-14T11:11:07;4.00;;;1.10;;
21905;SDS011;11117;48.644;9.006;2024-02-14T11:13:32;2.33;;;1.10;;
21905;SDS011;11117;48.644;9.006;2024-02-14T11:16:01;7.73;;;1.37;;
21905;SDS011;11117;48.644;9.006;2024-02-14T11:18:28;3.97;;;1.03;;
21905;SDS011;11117;48.644;9.006;2024-02-14T11:20:54;1.37;;;1.10;;
21905;SDS011;11117;48.644;9.006;2024-02-14T11:23:23;1.70;;;1.00;;
21905;SDS011;11117;48.644;9.006;2024-02-14T11:25:49;1.63;;;0.90;;
21905;SDS011;11117;48.644;9.006;2024-02-14T11:28:15;1.67;;;0.97;;
21905;SDS011;11117;48.644;9.006;2024-02-14T11:30:42;1.80;;;0.90;;
21905;SDS011;11117;48.644;9.006;2024-02-14T11:33:15;2.17;;;0.70;;
21905;SDS011;11117;48.644;9.006;2024-02-14T11:35:42;1.40;;;0.70;;
21905;SDS011;11117;48.644;9.006;2024-02-14T11:38:08;2.77;;;1.10;;
21905;SDS011;11117;48.644;9.006;2024-02-14T11:40:34;1.00;;;0.70;;
21905;SDS011;11117;48.644;9.006;2024-02-14T11:43:01;0.90;;;0.70;;
21905;SDS011;11117;48.644;9.006;2024-02-14T11:45:29;1.27;;;1.00;;
21905;SDS011;11117;48.644;9.006;2024-02-14T11:47:55;1.70;;;1.10;;
21905;SDS011;11117;48.644;9.006;2024-02-14T11:50:20;3.50;;;0.90;;
21905;SDS011;11117;48.644;9.006;2024-02-14T11:52:46;2.53;;;0.90;;
21905;SDS011;11117;48.644;9.006;2024-02-14T11:55:12;3.60;;;0.60;;
21905;SDS011;11117;48.644;9.006;2024-02-14T11:57:37;5.63;;;1.50;;
21905;SDS011;11117;48.644;9.006;2024-02-14T12:00:03;3.33;;;1.77;;
21905;SDS011;11117;48.644;9.006;2024-02-14T12:02:29;2.07;;;1.60;;
21905;SDS011;11117;48.644;9.006;2024-02-14T12:04:55;1.60;;;1.20;;
21905;SDS011;11117;48.644;9.006;2024-02-14T12:07:22;1.10;;;0.87;;
21905;SDS011;11117;48.644;9.006;2024-02-14T12:09:48;1.83;;;0.87;;
21905;SDS011;11117;48.644;9.006;2024-02-14T12:12:13;1.17;;;0.70;;
21905;SDS011;11117;48.644;9.006;2024-02-14T12:14:40;1.50;;;1.07;;
21905;SDS011;11117;48.644;9.006;2024-02-14T12:17:07;2.20;;;1.77;;
21905;SDS011;11117;48.644;9.006;2024-02-14T12:19:34;2.73;;;0.90;;
21905;SDS011;11117;48.644;9.006;2024-02-14T12:22:00;1.33;;;0.90;;
21905;SDS011;11117;48.644;9.006;2024-02-14T12:24:25;2.10;;;0.80;;
21905;SDS011;11117;48.644;9.006;2024-02-14T12:26:53;0.77;;;0.67;;
21905;SDS011;11117;48.644;9.006;2024-02-14T12:29:18;1.07;;;0.70;;
21905;SDS011;11117;48.644;9.006;2024-02-14T12:31:44;1.13;;;0.80;;
21905;SDS011;11117;48.644;9.006;2024-02-14T12:34:10;1.20;;;0.80;;
21905;SDS011;11117;48.644;9.006;2024-02-14T12:36:36;1.47;;;0.93;;
21905;SDS011;11117;48.644;9.006;2024-02-14T12:39:02;4.70;;;4.10;;
21905;SDS011;11117;48.644;9.006;2024-02-14T12:41:28;3.23;;;1.87;;
21905;SDS011;11117;48.644;9.006;2024-02-14T12:43:54;3.43;;;2.00;;
21905;SDS011;11117;48.644;9.006;2024-02-14T12:46:21;1.17;;;1.00;;
21905;SDS011;11117;48.644;9.006;2024-02-14T12:48:46;0.80;;;0.80;;
21905;SDS011;11117;48.644;9.006;2024-02-14T12:51:12;1.67;;;0.70;;
21905;SDS011;11117;48.644;9.006;2024-02-14T12:53:38;1.40;;;0.50;;
21905;SDS011;11117;48.644;9.006;2024-02-14T12:56:05;2.53;;;0.90;;
21905;SDS011;11117;48.644;9.006;2024-02-14T12:58:32;1.20;;;0.57;;
21905;SDS011;11117;48.644;9.006;2024-02-14T13:01:01;0.70;;;0.43;;
21905;SDS011;11117;48.644;9.006;2024-02-14T13:03:27;1.17;;;0.70;;
21905;SDS011;11117;48.644;9.006;2024-02-14T13:05:52;1.17;;;0.60;;
21905;SDS011;11117;48.644;9.006;2024-02-14T13:08:18;1.37;;;0.63;;
21905;SDS011;11117;48.644;9.006;2024-02-14T13:10:44;1.67;;;1.10;;
21905;SDS011;11117;48.644;9.006;2024-02-14T13:13:10;1.50;;;1.03;;
21905;SDS011;11117;48.644;9.006;2024-02-14T13:15:35;0.70;;;0.70;;
21905;SDS011;11117;48.644;9.006;2024-02-14T13:18:01;1.80;;;0.70;;
21905;SDS011;11117;48.644;9.006;2024-02-14T13:20:27;0.77;;;0.63;;
21905;SDS011;11117;48.644;9.006;2024-02-14T13:22:53;2.07;;;0.67;;
21905;SDS011;11117;48.644;9.006;2024-02-14T13:25:18;1.10;;;0.50;;
21905;SDS011;11117;48.644;9.006;2024-02-14T13:27:44;204.67;;;14.53;;
21905;SDS011;11117;48.644;9.006;2024-02-14T13:30:10;4.53;;;1.27;;
21905;SDS011;11117;48.644;9.006;2024-02-14T13:32:35;3.10;;;0.57;;
21905;SDS011;11117;48.644;9.006;2024-02-14T13:35:01;10.13;;;1.53;;
21905;SDS011;11117;48.644;9.006;2024-02-14T13:37:27;3.60;;;0.50;;
21905;SDS011;11117;48.644;9.006;2024-02-14T13:39:52;1.97;;;0.60;;
21905;SDS011;11117;48.644;9.006;2024-02-14T13:42:18;4.67;;;0.87;;
21905;SDS011;11117;48.644;9.006;2024-02-14T13:44:44;0.70;;;0.53;;
21905;SDS011;11117;48.644;9.006;2024-02-14T13:47:09;1.60;;;0.70;;
21905;SDS011;11117;48.644;9.006;2024-02-14T13:49:35;3.97;;;0.67;;
21905;SDS011;11117;48.644;9.006;2024-02-14T13:52:00;2.03;;;0.63;;
21905;SDS011;11117;48.644;9.006;2024-02-14T13:54:26;1.17;;;0.70;;
21905;SDS011;11117;48.644;9.006;2024-02-14T13:56:52;24.83;;;2.43;;
21905;SDS011;11117;48.644;9.006;2024-02-14T13:59:17;2.03;;;0.63;;
21905;SDS011;11117;48.644;9.006;2024-02-14T14:01:44;9.53;;;1.20;;
21905;SDS011;11117;48.644;9.006;2024-02-14T14:04:10;1.00;;;0.60;;
21905;SDS011;11117;48.644;9.006;2024-02-14T14:06:36;2.60;;;0.43;;
21905;SDS011;11117;48.644;9.006;2024-02-14T14:09:01;1.73;;;0.60;;
21905;SDS011;11117;48.644;9.006;2024-02-14T14:11:27;2.50;;;0.73;;
21905;SDS011;11117;48.644;9.006;2024-02-14T14:13:52;1.23;;;0.63;;
21905;SDS011;11117;48.644;9.006;2024-02-14T14:16:18;2.07;;;0.90;;
21905;SDS011;11117;48.644;9.006;2024-02-14T14:18:43;1.83;;;0.60;;
21905;SDS011;11117;48.644;9.006;2024-02-14T14:21:09;0.73;;;0.60;;
21905;SDS011;11117;48.644;9.006;2024-02-14T14:23:34;1.97;;;0.63;;
21905;SDS011;11117;48.644;9.006;2024-02-14T14:26:01;1.43;;;0.60;;
21905;SDS011;11117;48.644;9.006;2024-02-14T14:28:26;1.57;;;0.70;;
21905;SDS011;11117;48.644;9.006;2024-02-14T14:30:52;1.17;;;0.50;;
21905;SDS011;11117;48.644;9.006;2024-02-14T14:33:18;1.17;;;0.50;;
21905;SDS011;11117;48.644;9.006;2024-02-14T14:35:43;0.70;;;0.60;;
21905;SDS011;11117;48.644;9.006;2024-02-14T14:38:09;1.83;;;0.90;;